Time;durP1;ratioP1;P1;durP2;ratioP2;P2;SDS_P1;SDS_P2;PMS_P1;PMS_P2;Temp;Humidity;BMP_temperature;BMP_pressure;BME280_temperature;BME280_humidity;BME280_pressure;Samples;Min_cycle;Max_cycle;Signal;HPM_P1;HPM_P2
2023/05/15 00:00:50;;;;;;;16.07;10.83;;;16.90;99.90;;;;;;4973516;28;20439;-82
2023/05/15 00:03:16;;;;;;;14.40;11.17;;;16.90;99.90;;;;;;4973517;28;20256;-82
2023/05/15 00:05:42;;;;;;;13.17;11.87;;;16.80;99.90;;;;;;4973709;28;20473;-85
2023/05/15 00:08:08;;;;;;;11.87;10.50;;;16.90;99.90;;;;;;4974824;28;20418;-82
2023/05/15 00:10:33;;;;;;;14.33;11.43;;;16.90;99.90;;;;;;4974885;28;20196;-85
2023/05/15 00:12:59;;;;;;;13.57;10.97;;;16.90;99.90;;;;;;4974821;28;20429;-85
2023/05/15 00:15:25;;;;;;;14.10;10.83;;;16.90;99.90;;;;;;4974817;28;20202;-86
2023/05/15 00:17:51;;;;;;;13.90;11.63;;;16.90;99.90;;;;;;4973411;28;20217;-82
2023/05/15 00:20:17;;;;;;;15.03;11.53;;;16.90;99.90;;;;;;4973399;28;20205;-85
2023/05/15 00:22:42;;;;;;;13.40;10.93;;;17.00;99.90;;;;;;4974612;28;20178;-82
2023/05/15 00:25:09;;;;;;;12.00;10.60;;;16.90;99.90;;;;;;4975131;28;20692;-90
2023/05/15 00:27:35;;;;;;;12.87;11.50;;;16.90;99.90;;;;;;4975085;28;20244;-82
2023/05/15 00:30:00;;;;;;;13.60;10.67;;;17.00;99.90;;;;;;4973392;28;20568;-82
2023/05/15 00:32:26;;;;;;;13.80;12.30;;;17.00;99.90;;;;;;4973455;28;20418;-84
2023/05/15 00:34:52;;;;;;;13.40;11.97;;;17.00;99.90;;;;;;4973503;28;20216;-85
2023/05/15 00:37:18;;;;;;;15.97;12.33;;;17.00;99.90;;;;;;4974642;28;20635;-84
2023/05/15 00:39:43;;;;;;;14.30;11.63;;;17.00;99.90;;;;;;4974986;28;20224;-81
2023/05/15 00:42:09;;;;;;;16.53;11.60;;;16.90;99.90;;;;;;4974410;28;20406;-85
2023/05/15 00:44:36;;;;;;;15.30;12.80;;;16.80;99.90;;;;;;4974863;28;20247;-84
2023/05/15 00:47:04;;;;;;;14.30;12.90;;;16.90;99.90;;;;;;4975499;28;20825;-82
2023/05/15 00:49:34;;;;;;;13.27;11.80;;;17.00;99.90;;;;;;4977026;28;21014;-84
2023/05/15 00:52:02;;;;;;;16.47;13.67;;;17.00;99.90;;;;;;4978468;28;20927;-82
2023/05/15 00:54:28;;;;;;;22.43;16.20;;;16.80;99.90;;;;;;4977047;28;20910;-85
2023/05/15 00:56:56;;;;;;;24.37;17.63;;;16.90;99.90;;;;;;4976777;28;20496;-85
2023/05/15 00:59:26;;;;;;;17.70;13.47;;;16.90;99.90;;;;;;4976972;28;20192;-84
2023/05/15 01:01:52;;;;;;;17.57;14.50;;;17.00;99.90;;;;;;4977940;28;20799;-82
2023/05/15 01:04:18;;;;;;;14.03;12.53;;;16.90;99.90;;;;;;4976708;28;20444;-85
2023/05/15 01:06:43;;;;;;;16.10;12.60;;;17.00;99.90;;;;;;4976668;28;20232;-82
2023/05/15 01:09:09;;;;;;;16.10;12.83;;;17.00;99.90;;;;;;4976420;28;20220;-82
2023/05/15 01:11:38;;;;;;;17.50;13.20;;;17.00;99.90;;;;;;4976605;28;20577;-84
2023/05/15 01:14:06;;;;;;;14.10;12.63;;;17.00;99.90;;;;;;4976548;28;20450;-84
2023/05/15 01:16:33;;;;;;;17.67;12.90;;;16.80;99.90;;;;;;4978388;28;20801;-82
2023/05/15 01:18:58;;;;;;;14.50;12.60;;;16.90;99.90;;;;;;4979085;28;20422;-82
2023/05/15 01:21:30;;;;;;;13.30;11.33;;;16.80;99.90;;;;;;4979132;28;20441;-88
2023/05/15 01:24:02;;;;;;;21.83;11.03;;;16.80;99.90;;;;;;4977095;28;20184;-82
2023/05/15 01:26:48;;;;;;;12.50;10.70;;;16.80;99.90;;;;;;4977911;28;20516;-82
2023/05/15 01:29:49;;;;;;;14.83;11.70;;;16.80;99.90;;;;;;4977810;28;20856;-82
2023/05/15 01:32:49;;;;;;;13.93;11.57;;;16.70;99.90;;;;;;4942549;28;20503;-85
2023/05/15 01:35:34;;;;;;;14.50;11.27;;;16.70;99.90;;;;;;4976898;28;20497;-85
2023/05/15 01:38:32;;;;;;;13.37;11.30;;;16.60;99.90;;;;;;4977350;28;20418;-86
2023/05/15 01:41:35;;;;;;;12.67;10.70;;;16.60;99.90;;;;;;4975945;28;20976;-86
2023/05/15 01:44:15;;;;;;;13.20;11.20;;;16.60;99.90;;;;;;4956036;28;20586;-85
2023/05/15 01:46:48;;;;;;;12.20;10.10;;;16.50;99.90;;;;;;4977177;28;20786;-85
2023/05/15 01:49:17;;;;;;;14.03;11.30;;;16.60;99.90;;;;;;4975990;28;21151;-81
2023/05/15 01:51:45;;;;;;;14.10;10.20;;;16.50;99.90;;;;;;4975753;28;20435;-82
2023/05/15 01:54:13;;;;;;;16.63;10.97;;;16.50;99.90;;;;;;4977448;28;20411;-85
2023/05/15 01:56:40;;;;;;;13.67;10.90;;;16.50;99.90;;;;;;4975479;28;20998;-85
2023/05/15 01:59:07;;;;;;;12.80;11.20;;;16.60;99.90;;;;;;4977236;28;20550;-82
2023/05/15 02:01:35;;;;;;;12.13;10.80;;;16.50;99.90;;;;;;4975592;28;20963;-85
2023/05/15 02:04:01;;;;;;;11.20;10.10;;;16.50;99.90;;;;;;4975698;28;20789;-85
2023/05/15 02:06:28;;;;;;;14.73;10.90;;;16.50;99.90;;;;;;4976579;28;20476;-82
2023/05/15 02:08:56;;;;;;;13.20;11.37;;;16.50;99.90;;;;;;4976953;28;20462;-82
2023/05/15 02:11:22;;;;;;;14.60;11.10;;;16.50;99.90;;;;;;4976715;28;20524;-82
2023/05/15 02:13:48;;;;;;;15.50;11.00;;;16.50;99.90;;;;;;4975488;28;21011;-84
2023/05/15 02:16:14;;;;;;;12.30;10.53;;;16.50;99.90;;;;;;4975791;28;20959;-82
2023/05/15 02:18:40;;;;;;;12.00;10.83;;;16.40;99.90;;;;;;4976242;28;20465;-86
2023/05/15 02:21:07;;;;;;;16.23;12.27;;;16.50;99.90;;;;;;4976600;28;20200;-82
2023/05/15 02:23:32;;;;;;;14.43;12.70;;;16.60;99.90;;;;;;4976720;28;20433;-82
2023/05/15 02:26:12;;;;;;;16.27;13.10;;;16.60;99.90;;;;;;4976373;28;20490;-82
2023/05/15 02:28:53;;;;;;;15.90;12.70;;;16.50;99.90;;;;;;4975097;28;20757;-84
2023/05/15 02:31:36;;;;;;;15.17;12.07;;;16.50;99.90;;;;;;4975076;28;20450;-82
2023/05/15 02:34:26;;;;;;;17.73;14.20;;;16.50;99.90;;;;;;4975294;28;20939;-85
2023/05/15 02:36:56;;;;;;;15.00;13.37;;;16.50;99.90;;;;;;4976286;28;20465;-82
2023/05/15 02:39:23;;;;;;;16.57;14.23;;;16.60;99.90;;;;;;4975102;28;20430;-85
2023/05/15 02:41:54;;;;;;;17.47;13.07;;;16.70;99.90;;;;;;4975170;28;20492;-84
2023/05/15 02:44:21;;;;;;;16.13;14.20;;;16.70;99.90;;;;;;4974800;28;20427;-82
2023/05/15 02:46:49;;;;;;;21.23;15.00;;;16.70;99.90;;;;;;4974713;28;20446;-82
2023/05/15 02:49:15;;;;;;;19.40;13.80;;;16.60;99.90;;;;;;4976300;28;20804;-82
2023/05/15 02:51:41;;;;;;;15.63;13.80;;;16.50;99.90;;;;;;4975956;28;20426;-82
2023/05/15 02:54:08;;;;;;;18.13;14.40;;;16.60;99.90;;;;;;4974798;28;20450;-84
2023/05/15 02:56:34;;;;;;;22.17;16.77;;;16.60;99.90;;;;;;4974606;28;20525;-84
2023/05/15 02:59:00;;;;;;;16.13;14.43;;;16.60;99.90;;;;;;4974483;28;20522;-82
2023/05/15 03:01:25;;;;;;;19.10;15.63;;;16.60;99.90;;;;;;4975773;28;20438;-82
2023/05/15 03:03:51;;;;;;;17.80;15.03;;;16.60;99.90;;;;;;4974119;28;20785;-82
2023/05/15 03:06:17;;;;;;;22.60;15.20;;;16.50;99.90;;;;;;4974439;28;20248;-82
2023/05/15 03:08:43;;;;;;;22.07;15.50;;;16.70;99.90;;;;;;4975152;28;20227;-82
2023/05/15 03:11:09;;;;;;;21.60;16.30;;;16.60;99.90;;;;;;4975610;28;20616;-85
2023/05/15 03:13:34;;;;;;;18.10;14.97;;;16.60;99.90;;;;;;4974315;28;20457;-85
2023/05/15 03:16:00;;;;;;;16.60;14.90;;;16.60;99.90;;;;;;4974133;28;20692;-85
2023/05/15 03:18:26;;;;;;;23.17;16.23;;;16.60;99.90;;;;;;4975473;28;20176;-85
2023/05/15 03:20:52;;;;;;;21.60;17.93;;;16.70;99.90;;;;;;4974221;28;20211;-82
2023/05/15 03:23:17;;;;;;;19.20;16.80;;;16.80;99.90;;;;;;4975520;28;20187;-82
2023/05/15 03:25:43;;;;;;;19.20;17.23;;;16.90;99.90;;;;;;4975137;28;20810;-86
2023/05/15 03:28:10;;;;;;;20.37;18.13;;;16.80;99.90;;;;;;4975383;28;20187;-82
2023/05/15 03:30:35;;;;;;;24.07;18.03;;;16.60;99.90;;;;;;4974014;28;20506;-85
2023/05/15 03:33:02;;;;;;;23.40;17.67;;;16.50;99.90;;;;;;4973999;28;20819;-82
2023/05/15 03:35:29;;;;;;;24.37;17.93;;;16.60;99.90;;;;;;4973934;28;20223;-82
2023/05/15 03:37:55;;;;;;;19.13;16.60;;;16.60;99.90;;;;;;4975133;28;20407;-82
2023/05/15 03:40:20;;;;;;;23.33;19.10;;;16.60;99.90;;;;;;4973795;28;20443;-82
2023/05/15 03:42:46;;;;;;;20.70;17.83;;;16.60;99.90;;;;;;4973813;28;20924;-85
2023/05/15 03:45:12;;;;;;;20.70;17.40;;;16.60;99.90;;;;;;4973793;28;20291;-82
2023/05/15 03:47:37;;;;;;;20.17;15.80;;;16.70;99.90;;;;;;4974963;28;20204;-82
2023/05/15 03:50:03;;;;;;;21.70;18.40;;;16.70;99.90;;;;;;4973616;28;20299;-82
2023/05/15 03:52:30;;;;;;;21.20;17.33;;;16.80;99.90;;;;;;4973775;28;20419;-84
2023/05/15 03:54:55;;;;;;;20.37;15.90;;;16.80;99.90;;;;;;4975305;28;20939;-82
2023/05/15 03:57:21;;;;;;;19.50;15.80;;;16.80;99.90;;;;;;4974946;28;20485;-84
2023/05/15 03:59:46;;;;;;;18.80;15.93;;;16.80;99.90;;;;;;4973671;28;20201;-85
2023/05/15 04:02:12;;;;;;;19.80;15.53;;;16.80;99.90;;;;;;4975009;28;20180;-83
2023/05/15 04:04:38;;;;;;;21.10;15.43;;;16.90;99.90;;;;;;4973619;28;20850;-82
2023/05/15 04:07:04;;;;;;;21.37;15.23;;;16.90;99.90;;;;;;4974928;28;20181;-82
2023/05/15 04:09:30;;;;;;;17.23;15.23;;;16.90;99.90;;;;;;4973704;28;20666;-85
2023/05/15 04:11:55;;;;;;;20.73;17.00;;;16.90;99.90;;;;;;4974648;28;20439;-82
2023/05/15 04:14:21;;;;;;;18.67;15.13;;;16.90;99.90;;;;;;4975094;28;20569;-86
2023/05/15 04:16:47;;;;;;;17.77;15.83;;;16.90;99.90;;;;;;4974405;28;20741;-86
2023/05/15 04:19:13;;;;;;;70.07;44.17;;;16.90;99.90;;;;;;4974578;28;20211;-81
2023/05/15 04:21:38;;;;;;;19.93;16.30;;;17.00;99.90;;;;;;4976518;28;20207;-86
2023/05/15 04:24:06;;;;;;;18.27;15.87;;;16.90;99.90;;;;;;4996140;28;20452;-82
2023/05/15 04:26:33;;;;;;;21.57;15.90;;;17.00;99.90;;;;;;4995640;28;20204;-88
2023/05/15 04:28:58;;;;;;;18.03;15.90;;;17.00;99.90;;;;;;4995842;28;20472;-82
2023/05/15 04:31:26;;;;;;;19.53;15.30;;;17.00;99.90;;;;;;4994722;28;21003;-87
2023/05/15 04:33:51;;;;;;;16.50;14.80;;;17.10;99.90;;;;;;4989073;28;20426;-82
2023/05/15 04:36:17;;;;;;;15.90;14.30;;;17.00;99.90;;;;;;4976903;28;20541;-81
2023/05/15 04:38:42;;;;;;;19.03;14.07;;;17.00;99.90;;;;;;4992609;28;20184;-81
2023/05/15 04:41:08;;;;;;;17.17;15.30;;;17.00;99.90;;;;;;4979135;28;20288;-87
2023/05/15 04:43:34;;;;;;;19.23;16.10;;;17.10;99.90;;;;;;4991850;28;20176;-86
2023/05/15 04:45:59;;;;;;;20.90;17.13;;;17.20;99.90;;;;;;5004474;28;20203;-81
2023/05/15 04:48:25;;;;;;;16.73;15.03;;;17.20;99.90;;;;;;4998860;28;20242;-81
2023/05/15 04:50:51;;;;;;;19.53;15.80;;;17.30;99.90;;;;;;5001853;28;20230;-81
2023/05/15 04:53:16;;;;;;;19.73;15.60;;;17.30;99.90;;;;;;5000697;28;20425;-81
2023/05/15 04:55:43;;;;;;;19.80;16.10;;;17.30;99.90;;;;;;4997309;28;20550;-80
2023/05/15 04:58:09;;;;;;;17.27;15.23;;;17.40;99.90;;;;;;4995830;28;20261;-80
2023/05/15 05:00:34;;;;;;;17.43;15.63;;;17.40;99.90;;;;;;4999637;28;20452;-80
2023/05/15 05:03:00;;;;;;;16.40;14.20;;;17.30;99.90;;;;;;5001881;28;20192;-84
2023/05/15 05:05:26;;;;;;;16.00;14.20;;;17.30;99.90;;;;;;5003715;28;20243;-81
2023/05/15 05:07:51;;;;;;;18.43;15.63;;;17.30;99.90;;;;;;4994994;28;20222;-85
2023/05/15 05:10:17;;;;;;;19.73;17.30;;;17.30;99.90;;;;;;5004731;28;20223;-86
2023/05/15 05:12:43;;;;;;;18.50;15.27;;;17.30;99.90;;;;;;5004323;28;20176;-86
2023/05/15 05:15:09;;;;;;;18.00;13.80;;;17.30;99.90;;;;;;5000512;28;20203;-80
2023/05/15 05:17:35;;;;;;;16.73;13.37;;;17.20;99.90;;;;;;5001147;28;20646;-85
2023/05/15 05:20:01;;;;;;;17.17;15.37;;;17.00;99.90;;;;;;4992756;28;20445;-86
2023/05/15 05:22:26;;;;;;;19.67;14.57;;;17.00;99.90;;;;;;5002507;28;20421;-79
2023/05/15 05:24:52;;;;;;;16.10;14.40;;;16.90;99.90;;;;;;5001828;28;20652;-85
2023/05/15 05:27:17;;;;;;;16.37;14.67;;;16.80;99.90;;;;;;4992035;28;20180;-82
2023/05/15 05:29:43;;;;;;;17.10;14.40;;;16.80;99.90;;;;;;4993482;28;20248;-79
2023/05/15 05:32:09;;;;;;;19.23;14.43;;;16.70;99.90;;;;;;4977857;28;20187;-80
2023/05/15 05:34:35;;;;;;;17.50;15.70;;;16.70;99.90;;;;;;4984749;28;20184;-83
2023/05/15 05:37:00;;;;;;;20.90;17.30;;;16.70;99.90;;;;;;4990983;28;20525;-80
2023/05/15 05:39:26;;;;;;;22.20;16.80;;;16.70;99.90;;;;;;4981937;28;20195;-80
2023/05/15 05:41:52;;;;;;;21.40;16.00;;;16.70;99.90;;;;;;4978002;28;20618;-82
2023/05/15 05:44:17;;;;;;;20.43;16.93;;;16.70;99.90;;;;;;4980030;28;20239;-80
2023/05/15 05:46:44;;;;;;;19.63;16.07;;;16.70;99.90;;;;;;4985177;28;20204;-83
2023/05/15 05:49:10;;;;;;;18.87;16.80;;;16.70;99.90;;;;;;4984666;28;20483;-80
2023/05/15 05:51:35;;;;;;;18.63;15.20;;;16.60;99.90;;;;;;4977673;28;20462;-80
2023/05/15 05:54:01;;;;;;;21.60;16.00;;;16.60;99.90;;;;;;4993893;28;20434;-83
2023/05/15 05:56:27;;;;;;;21.40;15.70;;;16.50;99.90;;;;;;5010333;28;20291;-80
2023/05/15 05:58:53;;;;;;;22.90;17.00;;;16.50;99.90;;;;;;5012063;28;20420;-82
2023/05/15 06:01:19;;;;;;;19.80;16.40;;;16.40;99.90;;;;;;5013598;28;20358;-82
2023/05/15 06:03:45;;;;;;;21.67;16.97;;;16.50;99.90;;;;;;4999904;28;20495;-83
2023/05/15 06:06:11;;;;;;;23.10;18.40;;;16.50;99.90;;;;;;4988079;28;20477;-82
2023/05/15 06:08:36;;;;;;;19.57;16.70;;;16.50;99.90;;;;;;5007468;28;20465;-83
2023/05/15 06:11:02;;;;;;;23.43;18.30;;;16.50;99.90;;;;;;4988332;28;20278;-83
2023/05/15 06:13:28;;;;;;;23.57;18.10;;;16.50;99.90;;;;;;4991512;28;20226;-83
2023/05/15 06:15:53;;;;;;;27.20;18.00;;;16.50;99.90;;;;;;4985698;28;20227;-80
2023/05/15 06:18:19;;;;;;;23.93;18.80;;;16.50;99.90;;;;;;4989381;28;20203;-83
2023/05/15 06:20:45;;;;;;;27.60;19.67;;;16.40;99.90;;;;;;4972350;28;20572;-80
2023/05/15 06:23:11;;;;;;;24.60;19.80;;;16.50;99.90;;;;;;4987511;28;20422;-83
2023/05/15 06:25:37;;;;;;;23.73;19.47;;;16.50;99.90;;;;;;4975737;28;20251;-80
2023/05/15 06:28:03;;;;;;;22.67;19.40;;;16.50;99.90;;;;;;4992889;28;20962;-80
2023/05/15 06:30:29;;;;;;;25.83;18.70;;;16.40;99.90;;;;;;4974979;28;20564;-79
2023/05/15 06:32:54;;;;;;;22.03;17.20;;;16.40;99.90;;;;;;4987945;28;20183;-80
2023/05/15 06:35:22;;;;;;;27.10;19.60;;;16.30;99.90;;;;;;4995208;28;20680;-80
2023/05/15 06:37:50;;;;;;;20.50;17.60;;;16.20;99.90;;;;;;4979927;28;20175;-83
2023/05/15 06:40:16;;;;;;;27.37;20.90;;;16.30;99.90;;;;;;4974566;28;20441;-80
2023/05/15 06:42:42;;;;;;;25.60;19.40;;;16.30;99.90;;;;;;4991321;28;20421;-83
2023/05/15 06:45:08;;;;;;;36.00;25.00;;;16.40;99.90;;;;;;4991756;28;20232;-80
2023/05/15 06:47:34;;;;;;;20.80;17.90;;;16.50;99.90;;;;;;4989117;28;20421;-79
2023/05/15 06:49:59;;;;;;;27.27;18.47;;;16.50;99.90;;;;;;4998948;28;20890;-80
2023/05/15 06:52:25;;;;;;;19.13;15.87;;;16.50;99.90;;;;;;4985192;28;20184;-83
2023/05/15 06:54:51;;;;;;;18.93;15.60;;;16.50;99.90;;;;;;4981064;28;20235;-80
2023/05/15 06:57:18;;;;;;;19.83;15.93;;;16.60;99.90;;;;;;4987009;28;20786;-83
2023/05/15 06:59:43;;;;;;;18.10;15.43;;;16.60;99.90;;;;;;5004504;28;20187;-83
2023/05/15 07:02:09;;;;;;;22.00;16.00;;;16.70;99.90;;;;;;5000945;28;20801;-83
2023/05/15 07:04:35;;;;;;;20.10;16.23;;;16.70;99.90;;;;;;4988495;28;20346;-80
2023/05/15 07:07:00;;;;;;;26.30;17.60;;;16.80;99.90;;;;;;4988768;28;20271;-80
2023/05/15 07:09:26;;;;;;;28.20;18.10;;;16.80;99.90;;;;;;4978870;28;20279;-80
2023/05/15 07:11:51;;;;;;;55.17;41.70;;;16.90;99.90;;;;;;4999504;28;20214;-80
2023/05/15 07:14:17;;;;;;;29.20;22.10;;;16.90;99.90;;;;;;4979690;28;20195;-83
2023/05/15 07:16:51;;;;;;;30.03;24.40;;;16.90;99.90;;;;;;5148561;27;20626;-84
2023/05/15 07:19:19;;;;;;;21.30;17.83;;;16.90;99.90;;;;;;5126390;27;20454;-81
2023/05/15 07:21:45;;;;;;;18.83;14.67;;;16.90;99.90;;;;;;5125392;27;20234;-81
2023/05/15 07:24:11;;;;;;;19.03;16.37;;;17.00;99.90;;;;;;5130850;27;20520;-81
2023/05/15 07:26:36;;;;;;;18.50;12.73;;;17.00;99.90;;;;;;5128159;27;20206;-85
2023/05/15 07:29:02;;;;;;;14.33;12.10;;;17.10;99.90;;;;;;5102057;27;20183;-81
2023/05/15 07:31:30;;;;;;;17.80;14.20;;;17.20;99.90;;;;;;5131930;27;20221;-84
2023/05/15 07:33:55;;;;;;;14.73;13.23;;;17.20;99.90;;;;;;5108161;28;20555;-84
2023/05/15 07:36:21;;;;;;;15.83;12.30;;;17.20;99.90;;;;;;5122544;27;20932;-84
2023/05/15 07:38:47;;;;;;;13.13;11.43;;;17.30;99.90;;;;;;5106358;28;20186;-81
2023/05/15 07:41:12;;;;;;;15.77;10.50;;;17.30;99.90;;;;;;5098853;28;20203;-81
2023/05/15 07:43:38;;;;;;;12.30;9.87;;;17.30;99.90;;;;;;5114231;28;20234;-84
2023/05/15 07:46:04;;;;;;;12.07;10.00;;;17.30;99.90;;;;;;5110557;27;20308;-82
2023/05/15 07:48:29;;;;;;;13.83;10.77;;;17.40;99.90;;;;;;5108696;28;21190;-81
2023/05/15 07:50:55;;;;;;;11.77;10.30;;;17.40;99.90;;;;;;5110229;28;20211;-85
2023/05/15 07:53:21;;;;;;;10.60;8.90;;;17.30;99.90;;;;;;5110131;28;20175;-84
2023/05/15 07:55:47;;;;;;;11.70;9.30;;;17.40;99.90;;;;;;5119222;27;20489;-84
2023/05/15 07:58:13;;;;;;;11.90;10.17;;;17.40;99.90;;;;;;5127361;28;20446;-82
2023/05/15 08:00:39;;;;;;;12.27;9.97;;;17.40;99.90;;;;;;5107851;28;20301;-82
2023/05/15 08:03:05;;;;;;;8.13;6.67;;;17.40;99.90;;;;;;5137273;27;20183;-84
2023/05/15 08:05:30;;;;;;;9.50;8.10;;;17.50;99.90;;;;;;5128428;27;21020;-85
2023/05/15 08:07:56;;;;;;;11.40;10.23;;;17.50;99.90;;;;;;5127039;28;20205;-83
2023/05/15 08:10:22;;;;;;;8.77;7.87;;;17.60;99.90;;;;;;5130927;27;20233;-83
2023/05/15 08:12:49;;;;;;;8.17;7.40;;;17.60;99.90;;;;;;5108453;28;20767;-82
2023/05/15 08:15:15;;;;;;;6.27;5.67;;;17.60;99.90;;;;;;5108714;28;20499;-82
2023/05/15 08:17:41;;;;;;;7.60;6.43;;;17.50;99.90;;;;;;5121541;27;20418;-82
2023/05/15 08:20:07;;;;;;;6.53;5.93;;;17.50;99.90;;;;;;5124845;27;20455;-83
2023/05/15 08:22:33;;;;;;;7.07;5.97;;;17.50;99.90;;;;;;5124032;28;20172;-86
2023/05/15 08:24:59;;;;;;;6.40;5.80;;;17.50;99.90;;;;;;5124834;27;20474;-86
2023/05/15 08:27:25;;;;;;;6.30;5.67;;;17.60;99.90;;;;;;5098287;28;20817;-85
2023/05/15 08:29:51;;;;;;;6.50;5.90;;;17.60;99.90;;;;;;5094178;28;20467;-83
2023/05/15 08:32:17;;;;;;;4.80;4.40;;;17.60;99.90;;;;;;5089440;28;20452;-85
2023/05/15 08:34:43;;;;;;;5.87;5.30;;;17.50;99.90;;;;;;5079162;28;20188;-79
2023/05/15 08:37:09;;;;;;;6.40;5.80;;;17.60;99.90;;;;;;5089146;28;20418;-82
2023/05/15 08:39:35;;;;;;;5.33;4.80;;;17.60;99.90;;;;;;5107706;28;20562;-82
2023/05/15 08:42:13;;;;;;;5.97;5.47;;;17.60;99.90;;;;;;5111596;28;20176;-80
2023/05/15 08:44:40;;;;;;;4.40;4.00;;;17.60;99.90;;;;;;5088981;28;20200;-83
2023/05/15 08:47:06;;;;;;;210.40;123.97;;;17.60;99.90;;;;;;5094152;28;20416;-84
2023/05/15 08:49:51;;;;;;;8.40;6.80;;;17.60;99.90;;;;;;5105798;27;20469;-81
2023/05/15 08:52:16;;;;;;;5.97;5.03;;;17.70;99.90;;;;;;5112063;27;20424;-81
2023/05/15 08:54:42;;;;;;;5.57;5.00;;;17.80;99.90;;;;;;5092190;28;20813;-84
2023/05/15 08:57:09;;;;;;;5.60;5.07;;;17.90;99.90;;;;;;5105470;28;20181;-85
2023/05/15 08:59:36;;;;;;;5.00;4.50;;;17.90;99.90;;;;;;5089590;28;20188;-85
2023/05/15 09:02:02;;;;;;;5.70;4.50;;;18.00;99.90;;;;;;5079029;27;20412;-82
2023/05/15 09:04:28;;;;;;;4.33;3.93;;;18.00;99.90;;;;;;5118533;27;20523;-81
2023/05/15 09:06:54;;;;;;;7.33;6.63;;;18.10;99.90;;;;;;5089749;28;20294;-81
2023/05/15 09:09:21;;;;;;;5.20;4.03;;;18.10;99.90;;;;;;5107491;27;20242;-82
2023/05/15 09:11:48;;;;;;;11.50;9.57;;;18.10;99.90;;;;;;5091214;28;20952;-82
2023/05/15 09:14:14;;;;;;;6.83;6.23;;;18.20;99.90;;;;;;5107626;28;20787;-85
2023/05/15 09:16:40;;;;;;;5.83;5.33;;;18.20;99.90;;;;;;5088943;28;20845;-85
2023/05/15 09:19:06;;;;;;;4.30;3.87;;;18.20;99.90;;;;;;5108314;28;20535;-84
2023/05/15 09:21:32;;;;;;;3.60;3.30;;;18.30;99.90;;;;;;5106536;28;20206;-82
2023/05/15 09:24:16;;;;;;;12.13;9.00;;;18.20;99.90;;;;;;5107505;27;20757;-83
2023/05/15 09:26:47;;;;;;;5.30;4.80;;;18.20;99.90;;;;;;5086287;28;20475;-84
2023/05/15 09:29:16;;;;;;;23.37;20.97;;;18.20;99.90;;;;;;5107364;28;20497;-82
2023/05/15 09:31:44;;;;;;;13.20;11.90;;;18.20;99.90;;;;;;5108336;28;20521;-84
2023/05/15 09:34:10;;;;;;;6.30;5.80;;;18.30;99.90;;;;;;5110357;27;20406;-83
2023/05/15 09:36:42;;;;;;;12.07;10.43;;;18.30;99.90;;;;;;5107358;28;21439;-81
2023/05/15 09:39:08;;;;;;;11.13;10.13;;;18.30;99.90;;;;;;5110145;28;20421;-84
2023/05/15 09:41:33;;;;;;;3.00;2.60;;;18.30;99.90;;;;;;5088741;28;20452;-82
2023/05/15 09:43:59;;;;;;;3.17;2.87;;;18.20;99.90;;;;;;5107225;27;20827;-82
2023/05/15 09:46:25;;;;;;;9.50;8.50;;;18.20;99.90;;;;;;5089240;28;20200;-82
2023/05/15 09:48:54;;;;;;;5.17;4.77;;;18.20;99.90;;;;;;5125116;27;20644;-82
2023/05/15 09:51:21;;;;;;;5.23;3.30;;;18.20;99.90;;;;;;5096005;28;20208;-82
2023/05/15 09:53:49;;;;;;;4.53;4.13;;;18.30;99.90;;;;;;5092490;28;20416;-81
2023/05/15 09:56:16;;;;;;;5.33;4.83;;;18.20;99.90;;;;;;5103493;28;20487;-83
2023/05/15 09:58:55;;;;;;;3.77;3.27;;;18.20;99.90;;;;;;5128362;27;20423;-82
2023/05/15 10:01:25;;;;;;;3.87;3.57;;;18.20;99.90;;;;;;5093113;28;20456;-82
2023/05/15 10:04:02;;;;;;;3.40;3.10;;;18.20;99.90;;;;;;5091662;28;20472;-82
2023/05/15 10:06:35;;;;;;;3.80;3.50;;;18.20;99.90;;;;;;5090907;28;20453;-82
2023/05/15 10:09:02;;;;;;;3.07;2.83;;;18.20;99.90;;;;;;5117884;27;20436;-82
2023/05/15 10:11:29;;;;;;;2.77;2.57;;;18.30;99.90;;;;;;5131815;27;20997;-82
2023/05/15 10:13:57;;;;;;;2.50;2.30;;;18.30;99.90;;;;;;5125557;27;20442;-84
2023/05/15 10:16:24;;;;;;;2.67;2.47;;;18.30;99.90;;;;;;5091054;28;21000;-82
2023/05/15 10:18:51;;;;;;;3.23;2.57;;;18.40;99.90;;;;;;5114617;27;20416;-84
2023/05/15 10:21:19;;;;;;;63.20;39.17;;;18.40;99.90;;;;;;5130434;27;20456;-83
2023/05/15 10:23:46;;;;;;;10.93;8.10;;;18.50;99.90;;;;;;5132772;27;20422;-82
2023/05/15 10:26:38;;;;;;;2.67;2.30;;;18.50;99.90;;;;;;5134364;27;20535;-84
2023/05/15 10:29:06;;;;;;;2.30;2.10;;;18.50;99.90;;;;;;5106327;28;20426;-85
2023/05/15 10:31:33;;;;;;;3.17;2.83;;;18.40;99.90;;;;;;5089224;27;20464;-82
2023/05/15 10:34:00;;;;;;;1.90;1.80;;;18.40;99.90;;;;;;5111962;28;20425;-82
2023/05/15 10:36:26;;;;;;;2.87;2.50;;;18.50;99.90;;;;;;5105072;28;20575;-83
2023/05/15 10:38:52;;;;;;;2.40;2.13;;;18.50;99.90;;;;;;5121476;27;20465;-82
2023/05/15 10:41:20;;;;;;;2.77;2.57;;;18.60;99.90;;;;;;5116974;27;20453;-83
2023/05/15 10:43:47;;;;;;;3.20;2.77;;;18.60;99.90;;;;;;5106500;27;20649;-83
2023/05/15 10:46:15;;;;;;;2.10;2.00;;;18.60;99.90;;;;;;5105450;28;20452;-84
2023/05/15 10:48:41;;;;;;;2.20;2.00;;;18.70;99.90;;;;;;5087615;28;20467;-81
2023/05/15 10:51:16;;;;;;;2.43;2.23;;;18.60;99.90;;;;;;5113553;27;20981;-82
2023/05/15 10:53:43;;;;;;;2.77;2.57;;;18.70;99.90;;;;;;5079913;27;20483;-82
2023/05/15 10:56:15;;;;;;;2.40;2.30;;;18.60;99.90;;;;;;5086401;28;20517;-84
2023/05/15 10:58:48;;;;;;;2.57;2.37;;;18.60;99.90;;;;;;5106716;28;20458;-84
2023/05/15 11:01:30;;;;;;;2.47;2.27;;;18.60;99.90;;;;;;5088034;28;20976;-82
2023/05/15 11:04:12;;;;;;;2.30;2.10;;;18.60;99.90;;;;;;5102311;28;20424;-84
2023/05/15 11:06:40;;;;;;;2.20;2.10;;;18.50;99.90;;;;;;5086288;28;20538;-82
2023/05/15 11:09:20;;;;;;;2.77;2.37;;;18.60;99.90;;;;;;5100402;27;20438;-82
2023/05/15 11:11:59;;;;;;;6.60;6.00;;;18.60;99.90;;;;;;5089143;28;20629;-83
2023/05/15 11:14:26;;;;;;;7.60;6.90;;;18.60;99.90;;;;;;5111379;28;20429;-84
2023/05/15 11:16:52;;;;;;;9.80;8.80;;;18.60;99.90;;;;;;5111338;28;20547;-84
2023/05/15 11:19:49;;;;;;;10.10;9.20;;;18.50;99.90;;;;;;5090902;28;20422;-84
2023/05/15 11:22:18;;;;;;;8.00;7.23;;;18.50;99.90;;;;;;5079103;28;20189;-84
2023/05/15 11:24:57;;;;;;;7.20;6.43;;;18.50;99.90;;;;;;5106737;28;20457;-84
2023/05/15 11:27:25;;;;;;;8.47;7.60;;;18.40;99.90;;;;;;5105994;28;20428;-84
2023/05/15 11:30:19;;;;;;;8.97;8.10;;;18.50;99.90;;;;;;5090042;28;20449;-82
2023/05/15 11:33:10;;;;;;;9.70;8.70;;;18.50;99.90;;;;;;5086205;28;20445;-83
2023/05/15 11:35:37;;;;;;;9.20;8.30;;;18.40;99.90;;;;;;5079288;28;20510;-83
2023/05/15 11:38:10;;;;;;;9.50;8.60;;;18.40;99.90;;;;;;5083647;28;20839;-82
2023/05/15 11:41:01;;;;;;;9.40;8.60;;;18.40;99.90;;;;;;5105283;28;20850;-83
2023/05/15 11:43:28;;;;;;;9.60;8.70;;;18.50;99.90;;;;;;5079664;28;20895;-82
2023/05/15 11:45:57;;;;;;;8.70;7.90;;;18.50;99.90;;;;;;5102632;28;20982;-82
2023/05/15 11:48:34;;;;;;;11.83;10.83;;;18.50;99.90;;;;;;5102969;28;20512;-84
2023/05/15 11:51:04;;;;;;;13.17;9.00;;;18.40;99.90;;;;;;5099877;28;20846;-84
2023/05/15 11:53:31;;;;;;;12.90;10.73;;;18.40;99.90;;;;;;5084499;28;20468;-82
2023/05/15 11:55:58;;;;;;;11.67;10.47;;;18.40;99.90;;;;;;5116141;28;20521;-85
2023/05/15 11:58:24;;;;;;;10.70;9.70;;;18.40;99.90;;;;;;5102480;28;20432;-85
2023/05/15 12:00:51;;;;;;;8.93;7.60;;;18.50;99.90;;;;;;5087292;27;20467;-83
2023/05/15 12:03:32;;;;;;;8.60;7.77;;;18.50;99.90;;;;;;5110202;27;20477;-82
2023/05/15 12:06:00;;;;;;;8.73;7.90;;;18.50;99.90;;;;;;5090552;28;20549;-82
2023/05/15 12:08:33;;;;;;;9.60;7.27;;;18.50;99.90;;;;;;5102571;27;20433;-85
2023/05/15 12:11:00;;;;;;;7.50;6.80;;;18.40;99.90;;;;;;5102712;27;20452;-83
2023/05/15 12:13:26;;;;;;;7.20;6.50;;;18.40;99.90;;;;;;5092466;28;20416;-85
2023/05/15 12:15:52;;;;;;;7.80;7.10;;;18.40;99.90;;;;;;5110864;27;20480;-82
2023/05/15 12:18:18;;;;;;;7.87;7.07;;;18.30;99.90;;;;;;5106330;27;20833;-85
2023/05/15 12:20:45;;;;;;;7.60;6.90;;;18.30;99.90;;;;;;5108291;27;20562;-83
2023/05/15 12:23:14;;;;;;;6.83;6.17;;;18.30;99.90;;;;;;5106390;28;20447;-85
2023/05/15 12:25:41;;;;;;;7.50;6.80;;;18.20;99.90;;;;;;5088400;28;20470;-84
2023/05/15 12:28:07;;;;;;;8.40;7.50;;;18.20;99.90;;;;;;5086972;28;20893;-82
2023/05/15 12:30:34;;;;;;;6.80;6.10;;;18.20;99.90;;;;;;5112075;28;20465;-85
2023/05/15 12:33:06;;;;;;;7.43;6.73;;;18.20;99.90;;;;;;5094334;27;20184;-85
2023/05/15 12:35:53;;;;;;;7.97;7.17;;;18.10;99.90;;;;;;5090791;28;20478;-82
2023/05/15 12:38:21;;;;;;;7.80;7.10;;;18.20;99.90;;;;;;5096159;28;21049;-82